Time;durP1;ratioP1;P1;durP2;ratioP2;P2;SDS_P1;SDS_P2;PMS_P1;PMS_P2;Temp;Humidity;BMP_temperature;BMP_pressure;BME280_temperature;BME280_humidity;BME280_pressure;Samples;Min_cycle;Max_cycle;Signal;HPM_P1;HPM_P2
2021/07/05 00:00:11;;;;;;;;;;;16.90;99.90;;;;;;5051482;28;20396;-75
2021/07/05 00:02:36;;;;;;;;;;;16.90;99.90;;;;;;5041078;28;19908;-75
2021/07/05 00:05:03;;;;;;;;;;;17.00;99.90;;;;;;5037993;28;19931;-76
2021/07/05 00:07:29;;;;;;;;;;;17.00;99.90;;;;;;5049389;28;19999;-76
2021/07/05 00:09:54;;;;;;;;;;;17.00;99.90;;;;;;5040326;28;19960;-75
2021/07/05 00:12:20;;;;;;;;;;;17.00;99.90;;;;;;5041799;28;19921;-76
2021/07/05 00:14:45;;;;;;;;;;;17.00;99.90;;;;;;5040368;28;19916;-75
2021/07/05 00:17:11;;;;;;;;;;;17.10;99.90;;;;;;5043540;28;19913;-75
2021/07/05 00:19:36;;;;;;;;;;;17.10;99.90;;;;;;5047312;28;19944;-74
2021/07/05 00:22:02;;;;;;;;;;;17.20;99.90;;;;;;5034885;28;19913;-74
2021/07/05 00:24:27;;;;;;;;;;;17.10;99.90;;;;;;5040578;28;19917;-74
2021/07/05 00:26:53;;;;;;;;;;;17.20;99.90;;;;;;5039106;28;19962;-74
2021/07/05 00:29:18;;;;;;;;;;;17.10;99.90;;;;;;5041527;28;20054;-75
2021/07/05 00:31:44;;;;;;;;;;;17.00;99.90;;;;;;5044416;28;19909;-76
2021/07/05 00:34:09;;;;;;;;;;;17.00;99.90;;;;;;5055619;28;19924;-77
2021/07/05 00:36:35;;;;;;;;;;;16.80;99.90;;;;;;5042781;28;20371;-76
2021/07/05 00:39:00;;;;;;;;;;;16.80;99.90;;;;;;5042403;28;19916;-76
2021/07/05 00:41:29;;;;;;;;;;;16.70;99.90;;;;;;5038720;28;19979;-77
2021/07/05 00:43:56;;;;;;;;;;;16.70;99.90;;;;;;5035040;28;19970;-78
2021/07/05 00:46:22;;;;;;;;;;;16.60;99.90;;;;;;5031765;28;19952;-78
2021/07/05 00:48:47;;;;;;;;;;;16.60;99.90;;;;;;5035649;28;20356;-77
2021/07/05 00:51:13;;;;;;;;;;;16.60;99.90;;;;;;5037862;28;20003;-77
2021/07/05 00:53:38;;;;;;;;;;;16.60;99.90;;;;;;5035985;28;20008;-77
2021/07/05 00:56:05;;;;;;;;;;;16.60;99.90;;;;;;5035605;28;20289;-77
2021/07/05 00:58:31;;;;;;;;;;;16.60;99.90;;;;;;5033406;28;19963;-77
2021/07/05 01:00:56;;;;;;;;;;;16.60;99.90;;;;;;5035591;28;19948;-77
2021/07/05 01:03:22;;;;;;;;;;;16.60;99.90;;;;;;5036407;28;19909;-77
2021/07/05 01:05:47;;;;;;;;;;;16.60;99.90;;;;;;5032974;28;20293;-77
2021/07/05 01:08:13;;;;;;;;;;;16.60;99.90;;;;;;5032349;28;19917;-76
2021/07/05 01:10:38;;;;;;;;;;;16.60;99.90;;;;;;5033337;28;19909;-76
2021/07/05 01:13:04;;;;;;;;;;;16.60;99.90;;;;;;5033975;28;19956;-76
2021/07/05 01:15:31;;;;;;;;;;;16.60;99.90;;;;;;5031729;28;19909;-76
2021/07/05 01:17:57;;;;;;;;;;;16.60;99.90;;;;;;5035377;28;19964;-76
2021/07/05 01:20:24;;;;;;;;;;;16.60;99.90;;;;;;5033945;28;20247;-76
2021/07/05 01:22:50;;;;;;;;;;;16.60;99.90;;;;;;5038014;28;19963;-76
2021/07/05 01:25:17;;;;;;;;;;;16.70;99.90;;;;;;5038504;28;20385;-76
2021/07/05 01:27:43;;;;;;;;;;;16.70;99.90;;;;;;5041110;28;19924;-76
2021/07/05 01:30:09;;;;;;;;;;;16.70;99.90;;;;;;5037895;28;20293;-76
2021/07/05 01:32:35;;;;;;;;;;;16.70;99.90;;;;;;5039340;28;20285;-76
2021/07/05 01:35:00;;;;;;;;;;;16.70;99.90;;;;;;5040853;28;19909;-76
2021/07/05 01:37:26;;;;;;;;;;;16.70;99.90;;;;;;5046086;28;20361;-76
2021/07/05 01:39:51;;;;;;;;;;;16.60;99.90;;;;;;5038050;28;20008;-75
2021/07/05 01:42:19;;;;;;;;;;;16.70;99.90;;;;;;5047569;28;20559;-75
2021/07/05 01:44:45;;;;;;;;;;;16.60;99.90;;;;;;5043001;28;19995;-75
2021/07/05 01:47:11;;;;;;;;;;;16.60;99.90;;;;;;5040155;28;19960;-76
2021/07/05 01:49:38;;;;;;;;;;;16.60;99.90;;;;;;5041237;28;19913;-76
2021/07/05 01:52:05;;;;;;;;;;;16.70;99.90;;;;;;5041382;28;20400;-75
2021/07/05 01:54:30;;;;;;;;;;;16.70;99.90;;;;;;5038592;28;20365;-75
2021/07/05 01:56:56;;;;;;;;;;;16.70;99.90;;;;;;5043741;28;19967;-75
2021/07/05 01:59:21;;;;;;;;;;;16.70;99.90;;;;;;5043060;28;19974;-75
2021/07/05 02:01:47;;;;;;;;;;;16.70;99.90;;;;;;5035854;28;20275;-75
2021/07/05 02:04:12;;;;;;;;;;;16.80;99.90;;;;;;5042191;28;20340;-75
2021/07/05 02:06:38;;;;;;;;;;;16.80;99.90;;;;;;5037562;28;19921;-76
2021/07/05 02:09:05;;;;;;;;;;;16.80;99.90;;;;;;5037349;28;20007;-75
2021/07/05 02:11:30;;;;;;;;;;;16.80;99.90;;;;;;5040359;28;19909;-75
2021/07/05 02:13:56;;;;;;;;;;;16.70;99.90;;;;;;5040361;28;19937;-75
2021/07/05 02:16:21;;;;;;;;;;;16.70;99.90;;;;;;5041020;28;20297;-75
2021/07/05 02:18:47;;;;;;;;;;;16.60;99.90;;;;;;5045579;28;20009;-75
2021/07/05 02:21:12;;;;;;;;;;;16.60;99.90;;;;;;5036995;28;20071;-74
2021/07/05 02:23:38;;;;;;;;;;;16.50;99.90;;;;;;5043046;28;19917;-75
2021/07/05 02:26:07;;;;;;;;;;;16.50;99.90;;;;;;5042888;28;19909;-75
2021/07/05 02:28:34;;;;;;;;;;;16.40;99.90;;;;;;5039391;28;19916;-75
2021/07/05 02:31:00;;;;;;;;;;;16.40;99.90;;;;;;5036784;28;19920;-75
2021/07/05 02:33:27;;;;;;;;;;;16.50;99.90;;;;;;5038162;28;19908;-75
2021/07/05 02:35:53;;;;;;;;;;;16.40;99.90;;;;;;5038559;28;20425;-75
2021/07/05 02:38:19;;;;;;;;;;;16.40;99.90;;;;;;5037954;28;20003;-74
2021/07/05 02:40:46;;;;;;;;;;;16.40;99.90;;;;;;5040362;28;19908;-75
2021/07/05 02:43:13;;;;;;;;;;;16.40;99.90;;;;;;5036473;28;19917;-75
2021/07/05 02:45:41;;;;;;;;;;;16.40;99.90;;;;;;5042205;28;19916;-75
2021/07/05 02:48:07;;;;;;;;;;;16.40;99.90;;;;;;5041896;28;19912;-76
2021/07/05 02:50:33;;;;;;;;;;;16.30;99.90;;;;;;5042916;28;19916;-76
2021/07/05 02:52:59;;;;;;;;;;;16.30;99.90;;;;;;5040485;28;19917;-76
2021/07/05 02:55:25;;;;;;;;;;;16.30;99.90;;;;;;5046741;28;19909;-76
2021/07/05 02:57:50;;;;;;;;;;;16.20;99.90;;;;;;5038693;28;20274;-76
2021/07/05 03:00:21;;;;;;;;;;;16.20;99.90;;;;;;5041309;28;19909;-76
2021/07/05 03:02:47;;;;;;;;;;;16.10;99.90;;;;;;5039896;28;19986;-77
2021/07/05 03:05:13;;;;;;;;;;;16.10;99.90;;;;;;5037123;28;20360;-77
2021/07/05 03:07:39;;;;;;;;;;;16.10;99.90;;;;;;5046295;28;19991;-77
2021/07/05 03:10:08;;;;;;;;;;;15.90;99.90;;;;;;5041844;28;20388;-77
2021/07/05 03:12:34;;;;;;;;;;;15.80;99.90;;;;;;5043374;28;19916;-76
2021/07/05 03:15:00;;;;;;;;;;;15.70;99.90;;;;;;5042990;28;20285;-77
2021/07/05 03:17:25;;;;;;;;;;;15.70;99.90;;;;;;5038023;28;19924;-77
2021/07/05 03:19:51;;;;;;;;;;;15.60;99.90;;;;;;5035947;28;19920;-77
2021/07/05 03:22:17;;;;;;;;;;;15.60;99.90;;;;;;5040420;28;19908;-77
2021/07/05 03:24:43;;;;;;;;;;;15.50;99.90;;;;;;5048475;28;19916;-77
2021/07/05 03:27:09;;;;;;;;;;;15.50;99.90;;;;;;5046856;28;19916;-77
2021/07/05 03:29:35;;;;;;;;;;;15.50;99.90;;;;;;5047279;28;20278;-77
2021/07/05 03:32:01;;;;;;;;;;;15.50;99.90;;;;;;5040754;28;19916;-77
2021/07/05 03:34:26;;;;;;;;;;;15.50;99.90;;;;;;5039548;28;20328;-76
2021/07/05 03:36:52;;;;;;;;;;;15.50;99.90;;;;;;5046201;28;19909;-77
2021/07/05 03:39:17;;;;;;;;;;;15.50;99.90;;;;;;5047578;28;19912;-77
2021/07/05 03:41:43;;;;;;;;;;;15.50;99.90;;;;;;5067314;28;19897;-77
2021/07/05 03:44:08;;;;;;;;;;;15.50;99.90;;;;;;5060669;28;19935;-76
2021/07/05 03:46:34;;;;;;;;;;;15.50;99.90;;;;;;5059319;28;19908;-77
2021/07/05 03:48:59;;;;;;;;;;;15.50;99.90;;;;;;5068218;28;19956;-77
2021/07/05 03:51:25;;;;;;;;;;;15.40;99.90;;;;;;5061512;28;19904;-76
2021/07/05 03:53:50;;;;;;;;;;;15.50;99.90;;;;;;5062205;28;19916;-77
2021/07/05 03:56:16;;;;;;;;;;;15.50;99.90;;;;;;5067508;28;19912;-77
2021/07/05 03:58:41;;;;;;;;;;;15.50;99.90;;;;;;5064819;28;19905;-76
2021/07/05 04:01:07;;;;;;;;;;;15.50;99.90;;;;;;5060808;28;19931;-78
2021/07/05 04:03:32;;;;;;;;;;;15.50;99.90;;;;;;5066397;28;19901;-76
2021/07/05 04:05:59;;;;;;;;;;;15.50;99.90;;;;;;5072405;28;19897;-77
2021/07/05 04:08:27;;;;;;;;;;;15.50;99.90;;;;;;5065634;28;19971;-77
2021/07/05 04:10:53;;;;;;;;;;;15.40;99.90;;;;;;5064663;28;19935;-76
2021/07/05 04:13:21;;;;;;;;;;;15.40;99.90;;;;;;5064372;28;19912;-76
2021/07/05 04:15:47;;;;;;;;;;;15.40;99.90;;;;;;5062299;28;19920;-77
2021/07/05 04:18:13;;;;;;;;;;;15.50;99.90;;;;;;5063106;28;19988;-76
2021/07/05 04:20:38;;;;;;;;;;;15.50;99.90;;;;;;5069383;28;20003;-77
2021/07/05 04:23:04;;;;;;;;;;;15.40;99.90;;;;;;5064040;28;19897;-77
2021/07/05 04:25:29;;;;;;;;;;;15.40;99.90;;;;;;5048816;28;19956;-77
2021/07/05 04:27:55;;;;;;;;;;;15.40;99.90;;;;;;5047664;28;19955;-76
2021/07/05 04:30:20;;;;;;;;;;;15.50;99.90;;;;;;5041537;28;19920;-76
2021/07/05 04:32:46;;;;;;;;;;;15.40;99.90;;;;;;5044064;28;19924;-77
2021/07/05 04:35:14;;;;;;;;;;;15.40;99.90;;;;;;5043583;28;19917;-76
2021/07/05 04:37:40;;;;;;;;;;;15.40;99.90;;;;;;5057322;28;20381;-76
2021/07/05 04:40:10;;;;;;;;;;;15.40;99.90;;;;;;5044986;28;19927;-76
2021/07/05 04:42:36;;;;;;;;;;;15.40;99.90;;;;;;5036214;28;19917;-76
2021/07/05 04:45:02;;;;;;;;;;;15.40;99.90;;;;;;5033475;28;19920;-74
2021/07/05 04:47:28;;;;;;;;;;;15.40;99.90;;;;;;5034411;28;19909;-76
2021/07/05 04:49:54;;;;;;;;;;;15.40;99.90;;;;;;5033043;28;19909;-76
2021/07/05 04:52:19;;;;;;;;;;;15.40;99.90;;;;;;5034440;28;19916;-75
2021/07/05 04:54:45;;;;;;;;;;;15.40;99.90;;;;;;5034185;28;20303;-75
2021/07/05 04:57:11;;;;;;;;;;;15.40;99.90;;;;;;5037373;28;19933;-76
2021/07/05 04:59:37;;;;;;;;;;;15.50;99.90;;;;;;5034600;28;20377;-75
2021/07/05 05:02:02;;;;;;;;;;;15.50;99.90;;;;;;5035346;28;19916;-75
2021/07/05 05:04:28;;;;;;;;;;;15.40;99.90;;;;;;5032364;28;19917;-75
2021/07/05 05:06:53;;;;;;;;;;;15.50;99.90;;;;;;5031495;28;19916;-75
2021/07/05 05:09:23;;;;;;;;;;;15.50;99.90;;;;;;5035798;28;20320;-75
2021/07/05 05:11:48;;;;;;;;;;;15.50;99.90;;;;;;5033150;28;19908;-75
2021/07/05 05:14:14;;;;;;;;;;;15.60;99.90;;;;;;5032384;28;20270;-75
2021/07/05 05:16:39;;;;;;;;;;;15.60;99.90;;;;;;5031782;28;19909;-75
2021/07/05 05:19:05;;;;;;;;;;;15.60;99.90;;;;;;5036138;28;19916;-75
2021/07/05 05:21:31;;;;;;;;;;;15.60;99.90;;;;;;5031324;28;19959;-75
2021/07/05 05:23:56;;;;;;;;;;;15.60;99.90;;;;;;5033274;28;19908;-75
2021/07/05 05:26:22;;;;;;;;;;;15.60;99.90;;;;;;5032258;28;20016;-75
2021/07/05 05:28:48;;;;;;;;;;;15.70;99.90;;;;;;5032652;28;19913;-75
2021/07/05 05:31:13;;;;;;;;;;;15.70;99.90;;;;;;5031927;28;19916;-75
2021/07/05 05:33:38;;;;;;;;;;;15.70;99.90;;;;;;5033946;28;20409;-75
2021/07/05 05:36:04;;;;;;;;;;;15.80;99.90;;;;;;5032342;28;19988;-75
2021/07/05 05:38:29;;;;;;;;;;;15.70;99.90;;;;;;5028952;28;20299;-75
2021/07/05 05:40:55;;;;;;;;;;;15.70;99.90;;;;;;5032810;28;19995;-76
2021/07/05 05:43:21;;;;;;;;;;;15.60;99.90;;;;;;5033122;28;20517;-76
2021/07/05 05:45:46;;;;;;;;;;;15.60;99.90;;;;;;5031636;28;19916;-76
2021/07/05 05:48:11;;;;;;;;;;;15.60;99.90;;;;;;5033284;28;20404;-76
2021/07/05 05:50:37;;;;;;;;;;;15.60;99.90;;;;;;5030185;28;20004;-76
2021/07/05 05:53:02;;;;;;;;;;;15.50;99.90;;;;;;5031926;28;20353;-76
2021/07/05 05:55:28;;;;;;;;;;;15.50;99.90;;;;;;5030002;28;20011;-76
2021/07/05 05:57:54;;;;;;;;;;;15.60;99.90;;;;;;5031369;28;19988;-76
2021/07/05 06:00:22;;;;;;;;;;;15.50;99.90;;;;;;5030887;28;19996;-76
2021/07/05 06:02:49;;;;;;;;;;;15.60;99.90;;;;;;5035906;28;20006;-75
2021/07/05 06:05:14;;;;;;;;;;;15.60;99.90;;;;;;5031745;28;20324;-75
2021/07/05 06:07:42;;;;;;;;;;;15.60;99.90;;;;;;5033278;28;19912;-76
2021/07/05 06:10:08;;;;;;;;;;;15.60;99.90;;;;;;5035438;28;19909;-75
2021/07/05 06:12:33;;;;;;;;;;;15.60;99.90;;;;;;5032060;28;19979;-75
2021/07/05 06:14:59;;;;;;;;;;;15.60;99.90;;;;;;5031320;28;19947;-75
2021/07/05 06:17:24;;;;;;;;;;;15.60;99.90;;;;;;5034268;28;19916;-75
2021/07/05 06:19:49;;;;;;;;;;;15.70;99.90;;;;;;5035596;28;19979;-75
2021/07/05 06:22:26;;;;;;;;;;;15.70;99.90;;;;;;5033656;28;20388;-75
2021/07/05 06:24:51;;;;;;;;;;;15.70;99.90;;;;;;5037388;28;19919;-75
2021/07/05 06:27:16;;;;;;;;;;;15.70;99.90;;;;;;5037228;28;19909;-75
2021/07/05 06:29:42;;;;;;;;;;;15.80;99.90;;;;;;5039536;28;20288;-75
2021/07/05 06:32:08;;;;;;;;;;;16.40;99.90;;;;;;5037042;28;19954;-76
2021/07/05 06:34:33;;;;;;;;;;;18.80;99.90;;;;;;5036702;28;20296;-75
2021/07/05 06:36:59;;;;;;;;;;;20.80;99.90;;;;;;5037618;28;19916;-76
2021/07/05 06:39:24;;;;;;;;;;;21.50;99.90;;;;;;5036580;28;19935;-76
2021/07/05 06:41:50;;;;;;;;;;;22.80;99.90;;;;;;5037402;28;19954;-76
2021/07/05 06:44:15;;;;;;;;;;;23.10;99.90;;;;;;5035359;28;19936;-76
2021/07/05 06:46:41;;;;;;;;;;;23.50;99.90;;;;;;5034548;28;19913;-76
2021/07/05 06:49:06;;;;;;;;;;;23.50;99.90;;;;;;5035143;28;19920;-76
2021/07/05 06:51:32;;;;;;;;;;;23.60;99.90;;;;;;5036761;28;20344;-76
2021/07/05 06:53:57;;;;;;;;;;;22.60;99.90;;;;;;5037023;28;20003;-76
2021/07/05 06:59:07;;;;;;;;;;;20.00;99.90;;;;;;5038573;28;20427;-76
2021/07/05 07:01:33;;;;;;;;;;;19.20;99.90;;;;;;5037115;28;19912;-75
2021/07/05 07:03:58;;;;;;;;;;;18.90;99.90;;;;;;5039575;28;19955;-75
2021/07/05 07:06:24;;;;;;;;;;;18.70;99.90;;;;;;5036316;28;19909;-75
2021/07/05 07:08:49;;;;;;;;;;;18.40;99.90;;;;;;5034771;28;19937;-75
2021/07/05 07:11:15;;;;;;;;;;;18.10;99.90;;;;;;5036579;28;20337;-77
2021/07/05 07:13:40;;;;;;;;;;;18.00;99.90;;;;;;5035288;28;20281;-77
2021/07/05 07:16:07;;;;;;;;;;;17.90;99.90;;;;;;5036876;28;20324;-76
2021/07/05 07:21:30;;;;;;;;;;;17.80;99.90;;;;;;5041203;28;20289;-76
2021/07/05 07:23:56;;;;;;;;;;;17.70;99.90;;;;;;5035945;28;19916;-76
2021/07/05 07:26:21;;;;;;;;;;;17.60;99.90;;;;;;5039446;28;19912;-77
2021/07/05 07:28:51;;;;;;;;;;;17.50;99.90;;;;;;5037080;28;20361;-77
2021/07/05 07:31:17;;;;;;;;;;;17.60;99.90;;;;;;5038230;28;19957;-77
2021/07/05 07:33:43;;;;;;;;;;;17.60;99.90;;;;;;5034257;28;20358;-77
2021/07/05 07:36:09;;;;;;;;;;;17.60;99.90;;;;;;5032330;28;19916;-76
2021/07/05 07:38:39;;;;;;;;;;;17.70;99.90;;;;;;5027539;28;20325;-77
2021/07/05 07:41:05;;;;;;;;;;;17.60;99.90;;;;;;5035226;28;19909;-77
2021/07/05 07:43:31;;;;;;;;;;;17.50;99.90;;;;;;5029798;28;20388;-75
2021/07/05 07:45:56;;;;;;;;;;;17.40;99.90;;;;;;5031488;28;19963;-75
2021/07/05 07:48:22;;;;;;;;;;;17.50;99.90;;;;;;5038501;28;19916;-76
2021/07/05 07:50:47;;;;;;;;;;;17.50;99.90;;;;;;5034337;28;20042;-76
2021/07/05 07:53:12;;;;;;;;;;;17.60;99.90;;;;;;5036199;28;20004;-76
2021/07/05 07:55:38;;;;;;;;;;;17.60;99.90;;;;;;5036098;28;20289;-76
2021/07/05 07:58:03;;;;;;;;;;;17.90;99.90;;;;;;5037448;28;19924;-76
2021/07/05 08:00:31;;;;;;;;;;;18.10;99.90;;;;;;5035676;28;19908;-77
2021/07/05 08:02:57;;;;;;;;;;;18.40;99.90;;;;;;5037471;28;19915;-75
2021/07/05 08:05:22;;;;;;;;;;;18.60;99.90;;;;;;5051318;28;19909;-75
2021/07/05 08:07:48;;;;;;;;;;;18.70;99.90;;;;;;5056680;28;19916;-75
2021/07/05 08:10:15;;;;;;;;;;;18.60;99.90;;;;;;5053070;28;19916;-75
2021/07/05 08:12:41;;;;;;;;;;;18.60;99.90;;;;;;5054742;28;19899;-75
2021/07/05 08:15:07;;;;;;;;;;;18.50;99.90;;;;;;5056657;28;20012;-75
2021/07/05 08:17:33;;;;;;;;;;;18.40;99.90;;;;;;5052270;28;19913;-75
2021/07/05 08:19:58;;;;;;;;;;;18.40;99.90;;;;;;5060691;28;19941;-75
2021/07/05 08:22:24;;;;;;;;;;;18.50;99.90;;;;;;5055042;28;19940;-76
2021/07/05 08:24:51;;;;;;;;;;;18.50;99.90;;;;;;5056394;28;19917;-76
2021/07/05 08:27:17;;;;;;;;;;;18.50;99.90;;;;;;5062605;28;19913;-76
2021/07/05 08:29:42;;;;;;;;;;;18.50;99.90;;;;;;5057362;28;19913;-77
2021/07/05 08:32:08;;;;;;;;;;;18.60;99.90;;;;;;5057181;28;19924;-74
2021/07/05 08:34:33;;;;;;;;;;;18.60;99.90;;;;;;5052797;28;20855;-76
2021/07/05 08:36:59;;;;;;;;;;;18.70;99.90;;;;;;5058890;28;21093;-76
2021/07/05 08:39:24;;;;;;;;;;;18.60;99.90;;;;;;5056630;28;20023;-75
2021/07/05 08:41:50;;;;;;;;;;;18.60;99.90;;;;;;5058445;28;19943;-74
2021/07/05 08:44:15;;;;;;;;;;;18.70;99.90;;;;;;5042676;28;20291;-73
2021/07/05 08:46:41;;;;;;;;;;;19.10;99.90;;;;;;5053221;28;19967;-74
2021/07/05 08:49:07;;;;;;;;;;;19.70;99.90;;;;;;5036129;28;19917;-74
2021/07/05 08:51:32;;;;;;;;;;;19.90;99.90;;;;;;5030105;28;19909;-74
2021/07/05 08:53:58;;;;;;;;;;;19.90;99.90;;;;;;5028147;28;19909;-73
2021/07/05 08:56:24;;;;;;;;;;;19.80;99.90;;;;;;5029697;28;19913;-75
2021/07/05 08:58:51;;;;;;;;;;;19.80;99.90;;;;;;5030160;28;19913;-76
2021/07/05 09:01:17;;;;;;;;;;;19.90;99.90;;;;;;5031190;28;19913;-75
2021/07/05 09:03:42;;;;;;;;;;;19.90;99.90;;;;;;5038286;28;19916;-75
2021/07/05 09:06:08;;;;;;;;;;;19.90;99.90;;;;;;5039447;28;19916;-75
2021/07/05 09:08:38;;;;;;;;;;;19.90;99.90;;;;;;5034826;28;19908;-76
2021/07/05 09:11:04;;;;;;;;;;;20.00;99.90;;;;;;5035821;28;19916;-74
2021/07/05 09:13:30;;;;;;;;;;;20.10;99.90;;;;;;5036601;28;20361;-75
2021/07/05 09:15:56;;;;;;;;;;;20.00;99.90;;;;;;5034999;28;19917;-76
2021/07/05 09:18:23;;;;;;;;;;;20.10;99.90;;;;;;5033353;28;19917;-76
2021/07/05 09:20:49;;;;;;;;;;;20.30;99.90;;;;;;5037946;28;19999;-77
2021/07/05 09:23:15;;;;;;;;;;;20.40;99.90;;;;;;5042476;28;20377;-75
2021/07/05 09:25:42;;;;;;;;;;;20.30;99.90;;;;;;5027997;28;19913;-76
2021/07/05 09:28:08;;;;;;;;;;;20.30;99.90;;;;;;5033336;28;19916;-76
2021/07/05 09:30:39;;;;;;;;;;;20.30;99.90;;;;;;5034890;28;19917;-75
2021/07/05 09:33:23;;;;;;;;;;;20.20;99.90;;;;;;5048829;28;20003;-76
2021/07/05 09:35:56;;;;;;;;;;;20.30;99.90;;;;;;5030879;28;19988;-76
2021/07/05 09:38:29;;;;;;;;;;;20.30;99.90;;;;;;5032636;28;19923;-76
2021/07/05 09:40:55;;;;;;;;;;;20.40;99.90;;;;;;5031234;28;19909;-76
2021/07/05 09:43:22;;;;;;;;;;;20.50;99.90;;;;;;5027175;28;19927;-76
2021/07/05 09:45:48;;;;;;;;;;;20.50;99.90;;;;;;5024756;28;19916;-76
2021/07/05 09:48:22;;;;;;;;;;;20.60;99.90;;;;;;5029155;28;19913;-75
2021/07/05 09:50:49;;;;;;;;;;;20.60;99.90;;;;;;5025819;28;19921;-77
2021/07/05 09:53:44;;;;;;;;;;;20.60;99.90;;;;;;5027625;28;19913;-76
2021/07/05 09:56:20;;;;;;;;;;;20.60;99.90;;;;;;5023503;28;19976;-76
2021/07/05 09:58:47;;;;;;;;;;;20.60;99.90;;;;;;5030550;28;20008;-76
2021/07/05 10:01:16;;;;;;;;;;;20.80;99.90;;;;;;5028359;28;19909;-76
2021/07/05 10:03:42;;;;;;;;;;;20.80;99.90;;;;;;5039445;28;19916;-75
2021/07/05 10:06:14;;;;;;;;;;;20.90;99.90;;;;;;5029889;28;19913;-75
2021/07/05 10:08:40;;;;;;;;;;;20.90;99.90;;;;;;5031447;28;20374;-76
2021/07/05 10:11:06;;;;;;;;;;;21.20;99.90;;;;;;5029515;28;19909;-76
2021/07/05 10:13:32;;;;;;;;;;;21.80;99.90;;;;;;5033228;28;19909;-76
2021/07/05 10:16:02;;;;;;;;;;;22.70;99.90;;;;;;5040309;28;19909;-76
2021/07/05 10:18:27;;;;;;;;;;;23.30;99.90;;;;;;5032525;28;19913;-77
2021/07/05 10:20:53;;;;;;;;;;;23.30;99.90;;;;;;5033372;28;20400;-77
2021/07/05 10:23:20;;;;;;;;;;;22.90;99.90;;;;;;5028928;28;19920;-77
2021/07/05 10:25:47;;;;;;;;;;;22.60;99.90;;;;;;5042188;28;19909;-76
2021/07/05 10:28:13;;;;;;;;;;;22.20;99.90;;;;;;5040438;28;19909;-77
2021/07/05 10:30:39;;;;;;;;;;;21.90;99.90;;;;;;5028898;28;19916;-77
2021/07/05 10:33:05;;;;;;;;;;;21.80;99.90;;;;;;5038075;28;20024;-76
2021/07/05 10:35:33;;;;;;;;;;;21.60;99.90;;;;;;5028929;28;19944;-75
2021/07/05 10:38:05;;;;;;;;;;;21.50;99.90;;;;;;5027875;28;20009;-76
2021/07/05 10:40:41;;;;;;;;;;;21.40;99.90;;;;;;5019969;28;19927;-75
2021/07/05 10:43:08;;;;;;;;;;;21.50;99.90;;;;;;5019379;28;19912;-77
2021/07/05 10:45:42;;;;;;;;;;;21.50;99.90;;;;;;5031879;28;19909;-76
2021/07/05 10:48:10;;;;;;;;;;;21.40;99.90;;;;;;5019553;28;19962;-80
2021/07/05 10:50:37;;;;;;;;;;;21.30;99.90;;;;;;5021647;28;20298;-81
2021/07/05 10:53:04;;;;;;;;;;;21.30;99.90;;;;;;5019885;28;19917;-78
2021/07/05 10:55:35;;;;;;;;;;;21.30;99.90;;;;;;5020434;28;20349;-76
2021/07/05 10:58:01;;;;;;;;;;;21.30;99.90;;;;;;5021722;28;20019;-79
2021/07/05 11:00:39;;;;;;;;;;;21.30;99.90;;;;;;5026719;28;19996;-79
2021/07/05 11:03:05;;;;;;;;;;;21.30;99.90;;;;;;5023832;28;19909;-79
2021/07/05 11:05:38;;;;;;;;;;;21.30;99.90;;;;;;5022278;28;19987;-78
2021/07/05 11:08:22;;;;;;;;;;;21.30;99.90;;;;;;5018451;28;19909;-79
2021/07/05 11:10:49;;;;;;;;;;;21.30;99.90;;;;;;5024556;28;19948;-80
2021/07/05 11:13:16;;;;;;;;;;;21.30;99.90;;;;;;5025611;28;19913;-80
2021/07/05 11:15:53;;;;;;;;;;;21.30;99.90;;;;;;5023372;28;19916;-81
2021/07/05 11:18:38;;;;;;;;;;;21.20;99.90;;;;;;5025787;28;20032;-79
2021/07/05 11:21:08;;;;;;;;;;;21.10;99.90;;;;;;5029160;28;19963;-78
2021/07/05 11:23:52;;;;;;;;;;;21.00;99.90;;;;;;5033538;28;19909;-79
2021/07/05 11:26:19;;;;;;;;;;;20.90;99.90;;;;;;5030292;28;19912;-79
2021/07/05 11:28:44;;;;;;;;;;;20.80;99.90;;;;;;5027279;28;19912;-81
2021/07/05 11:31:22;;;;;;;;;;;20.70;99.90;;;;;;5037062;28;19974;-79
2021/07/05 11:33:48;;;;;;;;;;;20.60;99.90;;;;;;5033330;28;19909;-79
2021/07/05 11:36:21;;;;;;;;;;;20.80;99.90;;;;;;5048227;28;19988;-81
2021/07/05 11:39:01;;;;;;;;;;;20.90;99.90;;;;;;5039928;28;19916;-80
2021/07/05 11:41:28;;;;;;;;;;;21.00;99.90;;;;;;5049942;28;19977;-81
2021/07/05 11:43:58;;;;;;;;;;;21.00;99.90;;;;;;5034716;28;19917;-79
2021/07/05 11:46:26;;;;;;;;;;;20.90;99.90;;;;;;5037061;28;20282;-79
2021/07/05 11:48:59;;;;;;;;;;;20.80;99.90;;;;;;5032302;28;19913;-79
2021/07/05 11:51:25;;;;;;;;;;;20.60;99.90;;;;;;5034131;28;19917;-79
2021/07/05 11:54:01;;;;;;;;;;;20.40;99.90;;;;;;5037106;28;19975;-79
2021/07/05 11:56:27;;;;;;;;;;;20.30;99.90;;;;;;5033163;28;20358;-79
2021/07/05 11:58:53;;;;;;;;;;;20.20;99.90;;;;;;5036089;28;19913;-80
2021/07/05 12:01:18;;;;;;;;;;;20.10;99.90;;;;;;5033813;28;20359;-79
2021/07/05 12:03:51;;;;;;;;;;;20.10;99.90;;;;;;5032805;28;20308;-78
2021/07/05 12:06:17;;;;;;;;;;;20.00;99.90;;;;;;5036461;28;20361;-79
2021/07/05 12:08:50;;;;;;;;;;;19.90;99.90;;;;;;5030086;28;20004;-80
2021/07/05 12:11:25;;;;;;;;;;;19.80;99.90;;;;;;5023441;28;19909;-81
2021/07/05 12:14:00;;;;;;;;;;;19.70;99.90;;;;;;5030063;28;20290;-81
2021/07/05 12:16:26;;;;;;;;;;;19.50;99.90;;;;;;5031177;28;20385;-81
2021/07/05 12:18:56;;;;;;;;;;;19.30;99.90;;;;;;5034609;28;19963;-81
2021/07/05 12:21:29;;;;;;;;;;;19.20;99.90;;;;;;5033444;28;19920;-79
2021/07/05 12:24:06;;;;;;;;;;;19.10;99.90;;;;;;5033225;28;20381;-79
2021/07/05 12:26:38;;;;;;;;;;;19.10;99.90;;;;;;5034899;28;20285;-80
2021/07/05 12:29:05;;;;;;;;;;;19.00;99.90;;;;;;5028360;28;19917;-79
2021/07/05 12:31:31;;;;;;;;;;;19.10;99.90;;;;;;5019906;28;19924;-77
2021/07/05 12:33:58;;;;;;;;;;;19.30;99.90;;;;;;5021864;28;20305;-77
2021/07/05 12:36:24;;;;;;;;;;;19.50;99.90;;;;;;5022873;28;19909;-77
2021/07/05 12:38:57;;;;;;;;;;;19.80;99.90;;;;;;5022949;28;19913;-78
2021/07/05 12:41:30;;;;;;;;;;;20.30;99.90;;;;;;5022642;28;19916;-77
2021/07/05 12:44:11;;;;;;;;;;;20.60;99.90;;;;;;5020891;28;20047;-75
2021/07/05 12:46:37;;;;;;;;;;;20.70;99.90;;;;;;5017412;28;19909;-77
2021/07/05 12:49:03;;;;;;;;;;;20.80;99.90;;;;;;5025084;28;19940;-77
2021/07/05 12:51:28;;;;;;;;;;;20.90;99.90;;;;;;5033477;28;19970;-78
2021/07/05 12:53:54;;;;;;;;;;;20.90;99.90;;;;;;5030440;28;20000;-77
2021/07/05 12:56:27;;;;;;;;;;;21.00;99.90;;;;;;5042016;28;19909;-76
2021/07/05 12:58:53;;;;;;;;;;;21.00;99.90;;;;;;5023965;28;19927;-76
2021/07/05 13:01:19;;;;;;;;;;;21.10;99.90;;;;;;5018132;28;19917;-76
2021/07/05 13:04:03;;;;;;;;;;;21.30;99.90;;;;;;5023186;28;19921;-79
2021/07/05 13:06:30;;;;;;;;;;;21.30;99.90;;;;;;5025655;28;20620;-77
2021/07/05 13:09:00;;;;;;;;;;;21.20;99.90;;;;;;5023219;28;19963;-77
2021/07/05 13:11:33;;;;;;;;;;;21.00;99.90;;;;;;5024385;28;19909;-76
2021/07/05 13:14:01;;;;;;;;;;;20.80;99.90;;;;;;5022319;28;19916;-77
2021/07/05 13:16:26;;;;;;;;;;;20.50;99.90;;;;;;5027019;28;19909;-77
2021/07/05 13:18:54;;;;;;;;;;;20.30;99.90;;;;;;5024869;28;19935;-77
2021/07/05 13:21:27;;;;;;;;;;;20.20;99.90;;;;;;5029757;28;19939;-77
2021/07/05 13:23:53;;;;;;;;;;;20.10;99.90;;;;;;5027468;28;19917;-76
2021/07/05 13:26:31;;;;;;;;;;;20.00;99.90;;;;;;5022665;28;19913;-77
2021/07/05 13:28:57;;;;;;;;;;;20.20;99.90;;;;;;5025386;28;19916;-78
2021/07/05 13:31:36;;;;;;;;;;;20.50;99.90;;;;;;5028085;28;19909;-77
2021/07/05 13:34:02;;;;;;;;;;;20.90;99.90;;;;;;5028023;28;19913;-75
2021/07/05 13:36:28;;;;;;;;;;;21.30;99.90;;;;;;5022054;28;19923;-76
2021/07/05 13:38:53;;;;;;;;;;;21.50;99.90;;;;;;5021206;28;19917;-78
2021/07/05 13:41:19;;;;;;;;;;;21.20;99.90;;;;;;5023240;28;19909;-74
2021/07/05 13:43:49;;;;;;;;;;;20.80;99.90;;;;;;5028001;28;19963;-75
2021/07/05 13:46:14;;;;;;;;;;;20.60;99.90;;;;;;5029386;28;19913;-76
2021/07/05 13:48:40;;;;;;;;;;;20.40;99.90;;;;;;5030036;28;20008;-77
2021/07/05 13:51:07;;;;;;;;;;;20.30;99.90;;;;;;5027817;28;19912;-77
2021/07/05 13:53:35;;;;;;;;;;;20.20;99.90;;;;;;5021722;28;19909;-78
2021/07/05 13:56:01;;;;;;;;;;;20.20;99.90;;;;;;5022978;28;19923;-77
2021/07/05 13:58:29;;;;;;;;;;;20.10;99.90;;;;;;5023100;28;19913;-76
2021/07/05 14:00:56;;;;;;;;;;;20.10;99.90;;;;;;5025254;28;19912;-76
2021/07/05 14:03:22;;;;;;;;;;;20.10;99.90;;;;;;5043799;28;19948;-75
2021/07/05 14:05:49;;;;;;;;;;;20.00;99.90;;;;;;5032110;28;19952;-75
2021/07/05 14:08:15;;;;;;;;;;;19.80;99.90;;;;;;5032112;28;19924;-76
2021/07/05 14:10:41;;;;;;;;;;;19.80;99.90;;;;;;5034212;28;19912;-75
2021/07/05 14:13:08;;;;;;;;;;;19.70;99.90;;;;;;5032700;28;19960;-76
2021/07/05 14:15:34;;;;;;;;;;;19.80;99.90;;;;;;5032312;28;20047;-76
2021/07/05 14:18:00;;;;;;;;;;;19.70;99.90;;;;;;5049654;28;19920;-76
2021/07/05 14:20:25;;;;;;;;;;;19.70;99.90;;;;;;5031117;28;19919;-76